createdAt,value
2018-12-27T18:47:24.750Z,23.32
2018-12-27T18:48:24.735Z,23.34
2018-12-27T18:49:55.190Z,23.41
2018-12-27T18:50:55.167Z,23.41
2018-12-27T18:52:25.633Z,23.34
2018-12-27T18:53:25.623Z,23.31
2018-12-27T18:54:56.118Z,23.31
2018-12-27T18:55:56.068Z,23.28
2018-12-27T18:57:26.536Z,23.34
2018-12-27T18:58:26.528Z,23.20
2018-12-27T18:59:56.996Z,23.18
2018-12-27T19:00:56.980Z,23.12
2018-12-27T19:02:27.434Z,23.17
2018-12-27T19:03:27.426Z,23.25
2018-12-27T19:04:57.928Z,23.10
2018-12-27T19:05:57.880Z,23.20
2018-12-27T19:07:32.713Z,23.13
2018-12-27T19:08:32.690Z,23.20
2018-12-27T19:10:03.159Z,23.05
2018-12-27T19:11:03.135Z,23.10
2018-12-27T19:12:33.621Z,23.06
2018-12-27T19:13:33.608Z,23.12
2018-12-27T19:15:04.079Z,23.03
2018-12-27T19:16:04.053Z,23.06
2018-12-27T19:17:34.542Z,23.09
2018-12-27T19:18:34.514Z,23.06
2018-12-27T19:20:04.992Z,23.09
2018-12-27T19:21:04.955Z,23.05
2018-12-27T19:22:35.421Z,23.09
2018-12-27T19:23:35.405Z,22.98
2018-12-27T19:25:05.876Z,23.03
2018-12-27T19:26:05.861Z,23.00
2018-12-27T19:27:05.839Z,22.98
2018-12-27T19:28:05.831Z,23.03
2018-12-27T19:29:05.817Z,22.99
2018-12-27T19:30:05.836Z,22.94
2018-12-27T19:31:05.796Z,22.98
2018-12-27T19:32:05.787Z,22.93
2018-12-27T19:33:05.776Z,22.96
2018-12-27T19:34:05.765Z,22.96
2018-12-27T19:35:05.758Z,22.93
2018-12-27T19:36:05.818Z,22.90
2018-12-27T19:37:05.732Z,22.91
2018-12-27T19:38:05.727Z,22.88
2018-12-27T19:39:05.709Z,22.91
2018-12-27T19:40:05.722Z,22.90
2018-12-27T19:41:05.698Z,22.85
2018-12-27T19:42:05.676Z,22.90
2018-12-27T19:43:05.671Z,22.91
2018-12-27T19:44:05.653Z,22.83
2018-12-27T19:45:05.649Z,22.85
2018-12-27T19:46:05.634Z,22.80
2018-12-27T19:47:05.634Z,22.83
2018-12-27T19:48:05.676Z,22.85
2018-12-27T19:49:05.610Z,22.81
2018-12-27T19:50:05.596Z,22.81
2018-12-27T19:51:05.593Z,22.80
2018-12-27T19:52:05.597Z,22.76
2018-12-27T19:53:05.566Z,22.75
2018-12-27T19:54:05.554Z,22.76
2018-12-27T19:55:05.551Z,22.80
2018-12-27T19:56:05.537Z,22.75
2018-12-27T19:57:05.527Z,22.70
2018-12-27T19:58:05.519Z,22.70
2018-12-27T19:59:05.531Z,22.75
2018-12-27T20:00:05.486Z,22.80
2018-12-27T20:01:05.488Z,22.76
2018-12-27T20:02:05.491Z,22.76
2018-12-27T20:03:05.464Z,22.69
2018-12-27T20:04:05.459Z,22.72
2018-12-27T20:05:05.430Z,22.72
2018-12-27T20:06:05.428Z,22.69
2018-12-27T20:07:05.436Z,22.63
2018-12-27T20:08:05.402Z,22.63
2018-12-27T20:09:05.400Z,22.63
2018-12-27T20:10:05.382Z,22.60
2018-12-27T20:11:05.364Z,22.65
2018-12-27T20:12:05.359Z,22.73
2018-12-27T20:13:05.397Z,22.66
2018-12-27T20:14:05.341Z,22.60
2018-12-27T20:15:05.323Z,22.65
2018-12-27T20:16:05.311Z,22.62
2018-12-27T20:17:05.305Z,22.60
2018-12-27T20:18:05.295Z,22.63
2018-12-27T20:19:05.281Z,22.65
2018-12-27T20:20:05.289Z,22.69
2018-12-27T20:21:05.256Z,22.68
2018-12-27T20:22:05.248Z,22.68
2018-12-27T20:23:05.731Z,22.65
2018-12-27T20:24:05.223Z,22.59
2018-12-27T20:25:05.218Z,22.68
2018-12-27T20:26:05.208Z,22.70
2018-12-27T20:27:05.198Z,22.60
2018-12-27T20:28:05.181Z,22.59
2018-12-27T20:29:05.176Z,22.54
2018-12-27T20:30:05.155Z,22.62
2018-12-27T20:31:05.151Z,22.59
2018-12-27T20:32:05.133Z,22.55
2018-12-27T20:33:05.130Z,22.57
2018-12-27T20:34:05.106Z,22.55
2018-12-27T20:35:05.099Z,22.55
2018-12-27T20:36:05.085Z,22.53
2018-12-27T20:37:05.077Z,22.59
2018-12-27T20:38:06.739Z,22.53
2018-12-27T20:39:05.054Z,22.57
2018-12-27T20:40:05.052Z,22.48
2018-12-27T20:41:05.041Z,22.59
2018-12-27T20:42:05.021Z,22.55
2018-12-27T20:43:05.015Z,22.57
2018-12-27T20:44:05.005Z,22.57
2018-12-27T20:45:04.997Z,22.59
2018-12-27T20:46:05.008Z,22.50
2018-12-27T20:47:04.973Z,22.57
2018-12-27T20:48:04.963Z,22.57
2018-12-27T20:49:04.971Z,22.54
2018-12-27T20:50:04.934Z,22.53
2018-12-27T20:51:04.949Z,22.51
2018-12-27T20:52:04.914Z,22.44
2018-12-27T20:53:04.901Z,22.50
2018-12-27T20:54:04.918Z,22.57
2018-12-27T20:55:04.876Z,22.54
2018-12-27T20:56:04.871Z,22.50
2018-12-27T20:57:04.858Z,22.51
2018-12-27T20:58:04.845Z,22.47
2018-12-27T20:59:04.834Z,22.48
2018-12-27T21:00:04.826Z,22.47
2018-12-27T21:01:04.818Z,22.45
2018-12-27T21:02:04.814Z,22.44
2018-12-27T21:03:04.798Z,22.45
2018-12-27T21:04:04.779Z,22.53
2018-12-27T21:05:04.791Z,22.48
2018-12-27T21:06:04.771Z,22.44
2018-12-27T21:07:04.756Z,22.45
2018-12-27T21:08:04.748Z,22.47
2018-12-27T21:09:04.745Z,22.47
2018-12-27T21:10:04.730Z,22.50
2018-12-27T21:11:04.716Z,22.39
2018-12-27T21:12:04.734Z,22.51
2018-12-27T21:13:04.713Z,22.38
2018-12-27T21:14:24.387Z,22.47
2018-12-27T21:15:24.343Z,22.53
2018-12-27T21:16:54.834Z,22.51
2018-12-27T21:17:54.824Z,22.50
2018-12-27T21:19:25.272Z,22.47
2018-12-27T21:20:25.256Z,22.47
2018-12-27T21:21:55.735Z,22.50
2018-12-27T21:22:55.727Z,22.54
2018-12-27T21:24:26.202Z,22.54
2018-12-27T21:25:26.195Z,22.63
2018-12-27T21:26:56.639Z,22.55
2018-12-27T21:27:56.622Z,22.45
2018-12-27T21:29:27.101Z,22.57
2018-12-27T21:30:27.073Z,22.45
2018-12-27T21:31:57.604Z,22.47
2018-12-27T21:32:57.527Z,22.41
2018-12-27T21:33:57.514Z,22.36
2018-12-27T21:34:57.505Z,22.45
2018-12-27T21:35:57.489Z,22.43
2018-12-27T21:36:57.487Z,22.39
2018-12-27T21:37:57.477Z,22.36
2018-12-27T21:38:57.472Z,22.36
2018-12-27T21:39:57.449Z,22.45
2018-12-27T21:40:57.455Z,22.45
2018-12-27T21:41:57.426Z,22.47
2018-12-27T21:42:57.415Z,22.54
2018-12-27T21:43:57.410Z,22.59
2018-12-27T21:44:57.405Z,22.68
2018-12-27T21:45:57.390Z,22.62
2018-12-27T21:46:57.391Z,22.69
2018-12-27T21:47:57.364Z,22.73
2018-12-27T21:48:57.351Z,22.73
2018-12-27T21:49:57.362Z,22.87
2018-12-27T21:50:57.357Z,22.75
2018-12-27T21:51:57.369Z,22.90
2018-12-27T21:52:57.398Z,22.93
2018-12-27T21:53:57.343Z,22.96
2018-12-27T21:54:57.286Z,22.96
2018-12-27T21:55:57.277Z,23.02
2018-12-27T21:56:57.264Z,22.99
2018-12-27T21:57:57.259Z,23.05
2018-12-27T21:58:57.353Z,23.05
2018-12-27T21:59:57.235Z,23.03
2018-12-27T22:00:57.239Z,23.03
2018-12-27T22:01:57.229Z,23.06
2018-12-27T22:02:57.196Z,23.23
2018-12-27T22:03:57.195Z,23.13
2018-12-27T22:04:57.186Z,23.17
2018-12-27T22:05:57.197Z,23.18
2018-12-27T22:06:57.170Z,23.24
2018-12-27T22:07:57.162Z,23.28
2018-12-27T22:08:57.137Z,23.28
2018-12-27T22:09:57.130Z,23.25
2018-12-27T22:10:57.120Z,23.34
2018-12-27T22:11:57.114Z,23.32
2018-12-27T22:12:57.095Z,23.32
2018-12-27T22:13:57.086Z,23.40
2018-12-27T22:14:57.080Z,23.40
2018-12-27T22:15:57.376Z,23.40
2018-12-27T22:16:57.054Z,23.36
2018-12-27T22:17:57.047Z,23.40
2018-12-27T22:18:57.038Z,23.48
2018-12-27T22:19:57.033Z,23.47
2018-12-27T22:20:57.048Z,23.55
2018-12-27T22:21:57.001Z,23.48
2018-12-27T22:22:57.005Z,23.61
2018-12-27T22:23:56.977Z,23.58
2018-12-27T22:24:56.982Z,23.55
2018-12-27T22:25:56.996Z,23.51
2018-12-27T22:26:56.956Z,23.37
2018-12-27T22:27:56.938Z,23.39
2018-12-27T22:28:56.931Z,23.28
2018-12-27T22:29:56.920Z,23.34
2018-12-27T22:30:56.906Z,23.24
2018-12-27T22:31:56.899Z,23.21
2018-12-27T22:32:56.911Z,23.25
2018-12-27T22:33:56.875Z,23.34
2018-12-27T22:34:56.858Z,23.32
2018-12-27T22:35:56.856Z,23.32
2018-12-27T22:36:56.937Z,23.37
2018-12-27T22:37:56.836Z,23.31
2018-12-27T22:38:56.819Z,23.32
2018-12-27T22:39:56.807Z,23.36
2018-12-27T22:40:56.801Z,23.34
2018-12-27T22:41:56.864Z,23.40
2018-12-27T22:42:56.789Z,23.39
2018-12-27T22:43:56.793Z,23.46
2018-12-27T22:44:56.756Z,23.36
2018-12-27T22:45:56.749Z,23.37
2018-12-27T22:46:56.730Z,23.46
2018-12-27T22:47:56.726Z,23.37
2018-12-27T22:48:56.711Z,23.36
2018-12-27T22:49:56.758Z,23.39
2018-12-27T22:50:56.690Z,23.40
2018-12-27T22:51:56.673Z,23.43
2018-12-27T22:52:56.665Z,23.41
2018-12-27T22:53:56.658Z,23.44
2018-12-27T22:54:56.642Z,23.47
2018-12-27T22:55:56.729Z,23.44
2018-12-27T22:56:56.640Z,23.50
2018-12-27T22:57:56.619Z,23.56
2018-12-27T22:58:56.609Z,23.56
2018-12-27T22:59:56.602Z,23.63
2018-12-27T23:00:56.589Z,23.59
2018-12-27T23:01:56.582Z,23.59
2018-12-27T23:02:56.561Z,23.62
2018-12-27T23:03:56.558Z,23.65
2018-12-27T23:04:56.545Z,23.69
2018-12-27T23:05:56.536Z,23.69
2018-12-27T23:06:56.526Z,23.73
2018-12-27T23:07:56.518Z,23.76
2018-12-27T23:08:56.531Z,23.61
2018-12-27T23:09:56.486Z,23.69
2018-12-27T23:10:56.477Z,23.76
2018-12-27T23:11:56.463Z,23.77
2018-12-27T23:12:56.455Z,23.77
2018-12-27T23:13:56.449Z,23.81
2018-12-27T23:14:56.431Z,23.77
2018-12-27T23:15:56.423Z,23.77
2018-12-27T23:16:56.411Z,23.77
2018-12-27T23:17:56.411Z,23.76
2018-12-27T23:18:56.390Z,23.81
2018-12-27T23:19:56.381Z,23.73
2018-12-27T23:20:56.561Z,23.86
2018-12-27T23:21:56.358Z,23.84
2018-12-27T23:22:56.348Z,23.76
2018-12-27T23:23:56.344Z,23.83
2018-12-27T23:24:56.337Z,23.81
2018-12-27T23:25:57.635Z,23.91
2018-12-27T23:26:56.318Z,23.84
2018-12-27T23:27:56.300Z,23.86
2018-12-27T23:28:56.292Z,23.96
2018-12-27T23:29:56.280Z,23.95
2018-12-27T23:30:56.278Z,23.92
2018-12-27T23:31:56.259Z,23.84
2018-12-27T23:32:56.246Z,23.95
2018-12-27T23:33:56.236Z,23.86
2018-12-27T23:34:56.221Z,23.93
2018-12-27T23:35:56.212Z,23.81
2018-12-27T23:36:56.202Z,23.81
2018-12-27T23:37:56.191Z,23.87
2018-12-27T23:38:56.191Z,23.92
2018-12-27T23:39:56.181Z,23.88
2018-12-27T23:40:56.160Z,23.93
2018-12-27T23:41:56.145Z,23.95
2018-12-27T23:42:56.138Z,23.99
2018-12-27T23:43:56.133Z,23.99
2018-12-27T23:44:56.115Z,23.95
2018-12-27T23:45:56.136Z,23.93
2018-12-27T23:46:56.099Z,24.08
2018-12-27T23:47:56.081Z,24.01
2018-12-27T23:48:56.076Z,24.06
2018-12-27T23:49:56.063Z,24.10
2018-12-27T23:50:56.054Z,24.10
2018-12-27T23:51:56.038Z,24.10
2018-12-27T23:52:56.029Z,24.08
2018-12-27T23:53:56.018Z,24.13
2018-12-27T23:54:56.042Z,24.18
2018-12-27T23:55:56.001Z,24.11
2018-12-27T23:56:55.984Z,24.10
2018-12-27T23:57:55.976Z,24.26
2018-12-27T23:58:55.967Z,24.24
2018-12-27T23:59:55.958Z,24.23
